createdAt,value
2022-11-09T00:01:12.332Z,54.96
2022-11-09T00:03:38.800Z,56.18
2022-11-09T00:06:05.287Z,55.58
2022-11-09T00:08:31.871Z,54.77
2022-11-09T00:11:06.056Z,55.87
2022-11-09T00:13:36.176Z,56.39
2022-11-09T00:16:02.602Z,55.05
2022-11-09T00:18:29.608Z,55.50
2022-11-09T00:20:56.308Z,55.97
2022-11-09T00:23:23.306Z,56.54
2022-11-09T00:25:49.936Z,57.92
2022-11-09T00:28:16.455Z,57.01
2022-11-09T00:30:42.959Z,57.35
2022-11-09T00:33:09.462Z,58.82
2022-11-09T00:35:38.380Z,57.72
2022-11-09T00:38:04.970Z,58.66
2022-11-09T00:40:31.452Z,58.88
2022-11-09T00:42:58.007Z,56.50
2022-11-09T00:45:24.556Z,59.40
2022-11-09T00:47:52.173Z,58.07
2022-11-09T00:50:18.791Z,58.62
2022-11-09T00:52:45.483Z,58.85
2022-11-09T00:55:12.028Z,58.93
2022-11-09T00:57:38.526Z,61.20
2022-11-09T01:00:05.916Z,62.87
2022-11-09T01:02:32.624Z,64.00
2022-11-09T01:04:59.159Z,64.15
2022-11-09T01:07:25.780Z,63.85
2022-11-09T01:09:52.256Z,64.34
2022-11-09T01:12:20.596Z,62.29
2022-11-09T01:14:47.212Z,62.81
2022-11-09T01:17:13.695Z,64.10
2022-11-09T01:19:40.526Z,63.72
2022-11-09T01:22:07.034Z,63.39
2022-11-09T01:24:33.534Z,64.80
2022-11-09T01:26:59.996Z,65.21
2022-11-09T01:29:26.460Z,65.15
2022-11-09T01:31:55.116Z,66.07
2022-11-09T01:34:21.852Z,65.89
2022-11-09T01:36:51.830Z,64.44
2022-11-09T01:39:19.011Z,65.28
2022-11-09T01:41:46.160Z,64.71
2022-11-09T01:44:14.040Z,65.48
2022-11-09T01:46:45.580Z,66.63
2022-11-09T01:49:42.220Z,66.16
2022-11-09T01:52:22.292Z,66.85
2022-11-09T01:54:53.636Z,66.95
2022-11-09T01:57:24.839Z,69.67
2022-11-09T01:59:56.187Z,69.30
2022-11-09T02:02:23.014Z,70.28
2022-11-09T02:04:54.521Z,69.58
2022-11-09T02:07:22.051Z,71.83
2022-11-09T02:10:04.637Z,72.26
2022-11-09T02:12:33.590Z,74.12
2022-11-09T02:15:02.339Z,75.25
2022-11-09T02:17:29.437Z,76.39
2022-11-09T02:19:59.244Z,78.27
2022-11-09T02:22:26.179Z,78.88
2022-11-09T02:24:56.284Z,76.64
2022-11-09T02:27:23.413Z,79.86
2022-11-09T02:29:50.223Z,77.36
2022-11-09T02:32:21.089Z,77.75
2022-11-09T02:34:47.563Z,77.32
2022-11-09T02:37:25.838Z,77.08
2022-11-09T02:39:52.335Z,77.91
2022-11-09T02:42:21.719Z,76.88
2022-11-09T02:44:52.647Z,77.08
2022-11-09T02:47:21.425Z,76.82
2022-11-09T02:49:48.150Z,78.49
2022-11-09T02:52:14.641Z,77.70
2022-11-09T02:54:44.694Z,78.24
2022-11-09T02:57:11.380Z,78.60
2022-11-09T02:59:37.858Z,78.82
2022-11-09T03:02:04.329Z,79.27
2022-11-09T03:04:30.789Z,80.71
2022-11-09T03:06:57.358Z,80.32
2022-11-09T03:09:24.050Z,80.58
2022-11-09T03:11:50.490Z,80.79
2022-11-09T03:14:17.211Z,81.06
2022-11-09T03:16:49.126Z,81.29
2022-11-09T03:19:16.877Z,81.52
2022-11-09T03:21:43.360Z,81.46
2022-11-09T03:24:09.907Z,82.31
2022-11-09T03:26:36.466Z,80.33
2022-11-09T03:29:02.981Z,80.95
2022-11-09T03:31:29.491Z,82.40
2022-11-09T03:33:55.986Z,82.33
2022-11-09T03:36:22.466Z,80.79
2022-11-09T03:38:48.969Z,80.94
2022-11-09T03:41:15.446Z,84.37
2022-11-09T03:43:41.929Z,84.96
2022-11-09T03:46:08.430Z,85.27
2022-11-09T03:48:34.887Z,85.65
2022-11-09T03:51:01.419Z,85.84
2022-11-09T03:53:27.999Z,85.04
2022-11-09T03:55:57.591Z,86.60
2022-11-09T03:58:24.108Z,87.08
2022-11-09T04:00:50.625Z,86.79
2022-11-09T04:03:17.364Z,86.24
2022-11-09T04:05:43.988Z,86.14
2022-11-09T04:08:10.433Z,85.45
2022-11-09T04:10:36.979Z,85.38
2022-11-09T04:13:19.495Z,86.69
2022-11-09T04:15:46.141Z,87.98
2022-11-09T04:18:14.390Z,88.28
2022-11-09T04:20:40.990Z,88.55
2022-11-09T04:23:09.784Z,89.66
2022-11-09T04:25:37.671Z,89.28
2022-11-09T04:28:05.829Z,90.60
2022-11-09T04:30:33.847Z,90.74
2022-11-09T04:33:00.943Z,90.44
2022-11-09T04:35:29.047Z,91.19
2022-11-09T04:38:00.407Z,90.62
2022-11-09T04:40:28.496Z,90.40
2022-11-09T04:42:54.977Z,92.70
2022-11-09T04:45:23.993Z,93.90
2022-11-09T04:47:50.512Z,93.42
2022-11-09T04:50:17.081Z,92.64
2022-11-09T04:52:43.675Z,91.67
2022-11-09T04:55:10.174Z,92.13
2022-11-09T04:57:36.638Z,91.55
2022-11-09T05:00:04.454Z,91.42
2022-11-09T05:02:31.051Z,90.97
2022-11-09T05:04:57.560Z,90.57
2022-11-09T05:07:24.056Z,90.66
2022-11-09T05:09:53.344Z,93.08
2022-11-09T05:12:19.896Z,92.86
2022-11-09T05:14:46.476Z,93.11
2022-11-09T05:17:12.962Z,93.81
2022-11-09T05:19:39.435Z,93.34
2022-11-09T05:22:05.919Z,92.86
2022-11-09T05:24:32.438Z,93.15
2022-11-09T05:26:59.011Z,93.61
2022-11-09T05:29:25.490Z,94.00
2022-11-09T05:31:52.560Z,94.23
2022-11-09T05:34:19.431Z,95.05
2022-11-09T05:36:46.005Z,95.92
2022-11-09T05:39:12.494Z,95.57
2022-11-09T05:41:38.966Z,95.56
2022-11-09T05:44:05.441Z,94.71
2022-11-09T05:46:32.047Z,95.40
2022-11-09T05:48:58.524Z,95.01
2022-11-09T05:51:25.337Z,94.56
2022-11-09T05:53:51.979Z,94.75
2022-11-09T05:56:18.489Z,94.41
2022-11-09T05:58:44.976Z,94.89
2022-11-09T06:01:14.151Z,94.77
2022-11-09T06:03:41.025Z,94.13
2022-11-09T06:06:09.192Z,95.13
2022-11-09T06:08:36.246Z,95.74
2022-11-09T06:11:11.255Z,94.06
2022-11-09T06:13:37.858Z,93.90
2022-11-09T06:16:05.700Z,93.11
2022-11-09T06:18:33.732Z,93.27
2022-11-09T06:21:02.453Z,94.35
2022-11-09T06:23:29.421Z,93.42
2022-11-09T06:26:05.092Z,93.80
2022-11-09T06:28:31.609Z,95.18
2022-11-09T06:31:15.897Z,95.12
2022-11-09T06:33:42.496Z,94.68
2022-11-09T06:36:10.381Z,93.04
2022-11-09T06:38:36.930Z,92.49
2022-11-09T06:41:03.491Z,91.79
2022-11-09T06:43:30.095Z,90.12
2022-11-09T06:45:56.732Z,90.86
2022-11-09T06:48:23.599Z,89.77
2022-11-09T06:50:50.098Z,89.90
2022-11-09T06:53:18.046Z,89.21
2022-11-09T06:55:50.299Z,88.54
2022-11-09T06:58:17.714Z,88.37
2022-11-09T07:00:44.726Z,88.20
2022-11-09T07:03:15.595Z,87.61
2022-11-09T07:05:42.697Z,86.77
2022-11-09T07:08:09.248Z,85.42
2022-11-09T07:10:36.235Z,85.04
2022-11-09T07:13:02.771Z,83.55
2022-11-09T07:15:29.304Z,85.05
2022-11-09T07:18:00.174Z,84.77
2022-11-09T07:20:27.466Z,84.45
2022-11-09T07:22:53.958Z,85.83
2022-11-09T07:25:20.869Z,85.89
2022-11-09T07:27:47.621Z,83.95
2022-11-09T07:30:22.955Z,83.79
2022-11-09T07:35:36.012Z,83.32
2022-11-09T07:38:02.670Z,79.98
2022-11-09T07:40:30.501Z,82.00
2022-11-09T07:43:00.990Z,82.95
2022-11-09T07:45:28.801Z,84.83
2022-11-09T07:47:59.722Z,84.71
2022-11-09T07:50:27.368Z,84.24
2022-11-09T07:52:57.880Z,83.05
2022-11-09T07:55:25.097Z,83.08
2022-11-09T07:57:56.366Z,83.03
2022-11-09T08:00:23.942Z,82.69
2022-11-09T08:02:50.603Z,83.86
2022-11-09T08:05:17.315Z,83.46
2022-11-09T08:07:43.814Z,84.65
2022-11-09T08:10:10.624Z,84.42
2022-11-09T08:12:37.520Z,85.07
2022-11-09T08:15:05.070Z,84.74
2022-11-09T08:17:32.221Z,85.18
2022-11-09T08:19:58.972Z,84.50
2022-11-09T08:22:25.506Z,85.11
2022-11-09T08:24:51.987Z,83.92
2022-11-09T08:27:18.814Z,83.37
2022-11-09T08:29:45.380Z,85.32
2022-11-09T08:32:12.330Z,85.25
2022-11-09T08:34:38.820Z,83.01
2022-11-09T08:37:05.553Z,84.68
2022-11-09T08:39:32.086Z,83.64
2022-11-09T08:41:58.561Z,83.21
2022-11-09T08:44:25.059Z,84.32
2022-11-09T08:46:52.561Z,84.51
2022-11-09T08:49:19.047Z,82.15
2022-11-09T08:51:45.532Z,81.70
2022-11-09T08:54:12.002Z,81.05
2022-11-09T08:56:38.529Z,84.45
2022-11-09T08:59:05.026Z,85.14
2022-11-09T09:01:31.568Z,83.52
2022-11-09T09:03:58.038Z,84.82
2022-11-09T09:06:29.752Z,84.01
2022-11-09T09:08:57.476Z,81.23
2022-11-09T09:11:24.060Z,82.65
2022-11-09T09:13:50.524Z,81.80
2022-11-09T09:16:17.047Z,83.06
2022-11-09T09:18:43.569Z,82.00
2022-11-09T09:21:10.608Z,82.80
2022-11-09T09:23:37.479Z,80.55
2022-11-09T09:26:04.114Z,81.39
2022-11-09T09:28:30.686Z,81.05
2022-11-09T09:30:58.629Z,80.85
2022-11-09T09:33:25.726Z,79.02
2022-11-09T09:35:52.420Z,79.15
2022-11-09T09:38:19.218Z,79.45
2022-11-09T09:40:57.633Z,79.99
2022-11-09T09:43:27.663Z,80.34
2022-11-09T09:45:54.377Z,81.37
2022-11-09T09:48:31.604Z,80.96
2022-11-09T09:51:11.095Z,80.36
2022-11-09T09:53:44.287Z,81.90
2022-11-09T09:56:29.004Z,81.94
2022-11-09T09:59:40.034Z,80.83
2022-11-09T10:02:25.308Z,81.81
2022-11-09T10:04:59.048Z,81.64
2022-11-09T10:08:00.085Z,80.58
2022-11-09T10:11:03.436Z,82.04
2022-11-09T10:13:55.955Z,79.14
2022-11-09T10:16:39.340Z,81.30
2022-11-09T10:19:34.028Z,80.07
2022-11-09T10:22:14.454Z,82.39
2022-11-09T10:25:16.796Z,82.39
2022-11-09T10:27:54.463Z,80.39
2022-11-09T10:30:26.997Z,79.50
2022-11-09T10:33:14.455Z,78.44
2022-11-09T10:35:43.654Z,77.89
2022-11-09T10:38:15.139Z,77.70
2022-11-09T10:40:48.633Z,79.16
2022-11-09T10:43:15.373Z,79.55
2022-11-09T10:45:44.123Z,80.70
2022-11-09T10:48:13.050Z,81.24
2022-11-09T10:50:50.366Z,81.28
2022-11-09T10:53:18.937Z,81.55
2022-11-09T10:55:57.391Z,80.88
2022-11-09T10:58:37.321Z,80.55
2022-11-09T11:01:09.721Z,78.42
2022-11-09T11:03:36.659Z,79.34
2022-11-09T11:06:12.423Z,80.93
2022-11-09T11:08:47.033Z,80.17
2022-11-09T11:11:33.287Z,80.72
2022-11-09T11:14:34.197Z,81.96
2022-11-09T11:17:01.113Z,81.79
2022-11-09T11:19:40.357Z,81.81
2022-11-09T11:22:14.071Z,83.00
2022-11-09T11:24:58.930Z,83.00
2022-11-09T11:27:37.293Z,82.25
2022-11-09T11:30:13.149Z,82.67
2022-11-09T11:32:41.329Z,82.62
2022-11-09T11:35:16.870Z,84.12
2022-11-09T11:37:47.052Z,85.02
2022-11-09T11:40:13.461Z,85.61
2022-11-09T11:43:06.126Z,85.86
2022-11-09T11:45:41.549Z,86.06
2022-11-09T11:48:27.248Z,86.66
2022-11-09T11:51:02.839Z,87.57
2022-11-09T11:53:39.372Z,87.03
2022-11-09T11:56:33.850Z,87.41
2022-11-09T11:59:32.158Z,88.26
2022-11-09T12:02:21.484Z,88.85
2022-11-09T12:04:58.599Z,88.27
2022-11-09T12:07:28.058Z,87.60
2022-11-09T12:10:11.761Z,85.25
2022-11-09T12:12:52.299Z,85.71
2022-11-09T12:15:56.468Z,85.11
2022-11-09T12:18:45.434Z,86.55
2022-11-09T12:21:32.400Z,85.20
2022-11-09T12:24:15.929Z,86.04
2022-11-09T12:27:33.240Z,87.18
2022-11-09T12:30:12.951Z,86.94
2022-11-09T12:32:55.732Z,87.09
2022-11-09T12:35:56.067Z,87.52
2022-11-09T12:38:39.793Z,88.23
2022-11-09T12:41:28.113Z,88.95
2022-11-09T12:44:14.475Z,91.53
2022-11-09T12:46:50.095Z,91.78
2022-11-09T12:49:42.921Z,92.41
2022-11-09T12:52:16.317Z,91.24
2022-11-09T12:54:47.647Z,91.83
2022-11-09T12:57:30.364Z,90.83
2022-11-09T13:00:00.952Z,90.25
2022-11-09T13:02:36.175Z,89.40
2022-11-09T13:05:08.532Z,88.03
2022-11-09T13:07:50.032Z,87.67
2022-11-09T13:10:29.462Z,88.32
2022-11-09T13:13:11.331Z,90.62
2022-11-09T13:15:39.691Z,90.23
2022-11-09T13:18:22.803Z,89.56
2022-11-09T13:20:55.872Z,89.15
2022-11-09T13:23:47.682Z,88.28
2022-11-09T13:26:32.437Z,88.36
2022-11-09T13:29:23.571Z,88.03
2022-11-09T13:32:04.570Z,88.24
2022-11-09T13:34:53.326Z,88.56
2022-11-09T13:37:38.673Z,88.12
2022-11-09T13:40:33.073Z,89.12
2022-11-09T13:43:09.588Z,89.30
2022-11-09T13:45:54.835Z,89.37
2022-11-09T13:48:32.943Z,89.10
2022-11-09T13:51:23.380Z,88.85
2022-11-09T13:54:02.816Z,89.32
2022-11-09T13:56:29.311Z,89.46
2022-11-09T13:59:07.964Z,89.79
2022-11-09T14:01:38.504Z,91.20
2022-11-09T14:04:05.275Z,91.19
2022-11-09T14:06:35.257Z,90.92
2022-11-09T14:09:02.935Z,90.26
2022-11-09T14:11:35.422Z,90.23
2022-11-09T14:14:33.635Z,89.52
2022-11-09T14:17:10.378Z,89.14
2022-11-09T14:19:58.167Z,89.41
2022-11-09T14:22:26.283Z,89.70
2022-11-09T14:24:52.929Z,89.27
2022-11-09T14:27:21.331Z,88.90
2022-11-09T14:29:55.848Z,88.41
2022-11-09T14:32:33.892Z,88.13
2022-11-09T14:35:32.744Z,88.12
2022-11-09T14:38:02.641Z,88.41
2022-11-09T14:40:32.657Z,88.42
2022-11-09T14:43:21.857Z,88.09
2022-11-09T14:45:53.355Z,87.68
2022-11-09T14:48:23.351Z,88.56
2022-11-09T14:50:52.541Z,89.02
2022-11-09T14:53:21.540Z,90.46
2022-11-09T14:55:53.387Z,92.40
2022-11-09T14:58:21.475Z,92.38
2022-11-09T15:01:09.457Z,92.75
2022-11-09T15:03:36.157Z,92.24
2022-11-09T15:06:05.344Z,91.97
2022-11-09T15:08:32.071Z,92.29
2022-11-09T15:10:58.622Z,91.86
2022-11-09T15:13:37.015Z,91.25
2022-11-09T15:16:05.240Z,91.10
2022-11-09T15:18:34.588Z,90.83
2022-11-09T15:21:18.928Z,92.02
2022-11-09T15:24:23.126Z,93.49
2022-11-09T15:26:50.611Z,94.08
2022-11-09T15:29:37.926Z,93.83
2022-11-09T15:32:10.525Z,92.85
2022-11-09T15:34:40.709Z,92.56
2022-11-09T15:37:19.274Z,92.76
2022-11-09T15:39:45.839Z,91.68
2022-11-09T15:42:13.531Z,91.91
2022-11-09T15:44:40.039Z,91.49
2022-11-09T15:47:20.640Z,91.13
2022-11-09T15:49:47.285Z,90.86
2022-11-09T15:52:13.758Z,90.74
2022-11-09T15:54:44.062Z,91.08
2022-11-09T15:57:18.268Z,92.55
2022-11-09T15:59:48.239Z,94.57
2022-11-09T16:02:19.589Z,95.12
2022-11-09T16:04:46.132Z,96.04
2022-11-09T16:07:16.019Z,96.98
2022-11-09T16:09:43.040Z,98.08
2022-11-09T16:12:09.909Z,98.42
2022-11-09T16:14:36.706Z,98.80
2022-11-09T16:17:04.374Z,98.58
2022-11-09T16:19:30.873Z,98.99
2022-11-09T16:21:57.430Z,99.19
2022-11-09T16:24:24.051Z,98.45
2022-11-09T16:26:50.554Z,97.96
2022-11-09T16:29:17.096Z,96.77
2022-11-09T16:31:52.178Z,96.07
2022-11-09T16:34:19.199Z,95.22
2022-11-09T16:36:50.875Z,94.62
2022-11-09T16:39:17.535Z,94.51
2022-11-09T16:41:50.225Z,93.76
2022-11-09T16:44:18.723Z,93.05
2022-11-09T16:46:47.214Z,93.21
2022-11-09T16:49:13.876Z,93.28
2022-11-09T16:51:40.722Z,94.38
2022-11-09T16:54:07.195Z,94.66
2022-11-09T16:56:36.424Z,94.34
2022-11-09T16:59:03.215Z,94.17
2022-11-09T17:01:29.779Z,94.82
2022-11-09T17:03:57.433Z,93.72
2022-11-09T17:06:24.263Z,93.86
2022-11-09T17:08:50.864Z,93.40
2022-11-09T17:11:17.360Z,92.87
2022-11-09T17:13:43.851Z,91.88
2022-11-09T17:16:12.330Z,91.30
2022-11-09T17:18:38.902Z,91.82
2022-11-09T17:21:12.839Z,91.28
2022-11-09T17:23:39.319Z,90.95
2022-11-09T17:26:07.701Z,90.92
2022-11-09T17:28:38.755Z,91.15
2022-11-09T17:31:08.973Z,90.71
2022-11-09T17:33:35.582Z,90.64
2022-11-09T17:36:04.945Z,90.22
2022-11-09T17:38:31.532Z,90.11
2022-11-09T17:41:05.185Z,89.47
2022-11-09T17:43:33.085Z,89.14
2022-11-09T17:46:10.412Z,89.64
2022-11-09T17:48:38.324Z,88.79
2022-11-09T17:51:06.224Z,89.60
2022-11-09T17:53:32.865Z,89.83
2022-11-09T17:55:59.767Z,89.59
2022-11-09T17:58:26.427Z,89.75
2022-11-09T18:00:53.204Z,90.17
2022-11-09T18:03:22.582Z,90.53
2022-11-09T18:05:49.364Z,91.24
2022-11-09T18:08:18.659Z,91.68
2022-11-09T18:10:47.920Z,90.88
2022-11-09T18:13:14.375Z,91.28
2022-11-09T18:15:40.905Z,90.88
2022-11-09T18:18:12.336Z,91.04
2022-11-09T18:20:38.852Z,92.35
2022-11-09T18:23:05.382Z,92.24
2022-11-09T18:25:31.892Z,92.44
2022-11-09T18:27:58.383Z,92.19
2022-11-09T18:30:24.932Z,91.80
2022-11-09T18:32:52.193Z,91.69
2022-11-09T18:35:18.707Z,92.00
2022-11-09T18:37:45.367Z,92.21
2022-11-09T18:40:12.058Z,93.50
2022-11-09T18:42:38.622Z,94.35
2022-11-09T18:45:05.972Z,94.34
2022-11-09T18:47:32.523Z,94.94
2022-11-09T18:49:59.040Z,94.64
2022-11-09T18:52:25.701Z,93.00
2022-11-09T18:54:52.255Z,92.92
2022-11-09T18:57:20.119Z,93.07
2022-11-09T18:59:46.766Z,93.01
2022-11-09T19:02:17.638Z,92.23
2022-11-09T19:04:46.590Z,92.58
2022-11-09T19:07:13.152Z,92.78
2022-11-09T19:09:39.751Z,92.04
2022-11-09T19:12:07.437Z,92.76
2022-11-09T19:14:35.786Z,92.27
2022-11-09T19:17:02.291Z,91.45
2022-11-09T19:19:28.796Z,90.53
2022-11-09T19:21:59.126Z,89.72
2022-11-09T19:24:26.665Z,89.29
2022-11-09T19:26:53.157Z,89.69
2022-11-09T19:29:19.644Z,89.14
2022-11-09T19:31:46.538Z,88.93
2022-11-09T19:34:15.605Z,89.33
2022-11-09T19:36:42.616Z,89.28
2022-11-09T19:39:09.882Z,89.20
2022-11-09T19:41:36.514Z,89.14
2022-11-09T19:44:03.420Z,89.19
2022-11-09T19:46:30.647Z,89.08
2022-11-09T19:48:57.382Z,88.80
2022-11-09T19:51:24.348Z,88.96
2022-11-09T19:53:52.189Z,89.22
2022-11-09T19:56:19.454Z,89.30
2022-11-09T19:58:52.635Z,88.71
2022-11-09T20:01:19.471Z,89.06
2022-11-09T20:03:54.629Z,89.20
2022-11-09T20:06:22.135Z,89.31
2022-11-09T20:08:48.797Z,90.16
2022-11-09T20:11:27.650Z,89.94
2022-11-09T20:14:04.710Z,89.24
2022-11-09T20:16:32.482Z,89.53
2022-11-09T20:19:02.538Z,90.17
2022-11-09T20:21:29.031Z,91.31
2022-11-09T20:23:55.559Z,91.38
2022-11-09T20:26:22.062Z,91.11
2022-11-09T20:28:48.840Z,90.55
2022-11-09T20:31:17.729Z,90.23
2022-11-09T20:33:44.270Z,90.47
2022-11-09T20:36:10.790Z,90.55
2022-11-09T20:38:37.554Z,90.21
2022-11-09T20:41:08.711Z,90.12
2022-11-09T20:43:36.398Z,90.03
2022-11-09T20:46:07.763Z,89.77
2022-11-09T20:51:22.993Z,90.93
2022-11-09T20:53:52.108Z,91.09
2022-11-09T20:56:19.833Z,91.87
2022-11-09T20:58:46.586Z,92.51
2022-11-09T21:01:19.555Z,91.66
2022-11-09T21:03:47.416Z,91.11
2022-11-09T21:06:14.670Z,90.87
2022-11-09T21:08:46.765Z,90.88
2022-11-09T21:11:13.600Z,91.04
2022-11-09T21:13:40.676Z,90.52
2022-11-09T21:16:13.318Z,89.74
2022-11-09T21:18:40.274Z,90.28
2022-11-09T21:21:09.460Z,90.57
2022-11-09T21:23:39.336Z,89.23
2022-11-09T21:26:08.158Z,89.14
2022-11-09T21:28:34.729Z,88.35
2022-11-09T21:31:02.060Z,88.98
2022-11-09T21:33:28.875Z,89.50
2022-11-09T21:35:55.630Z,89.01
2022-11-09T21:38:22.430Z,88.80
2022-11-09T21:40:49.888Z,88.92
2022-11-09T21:43:16.761Z,88.22
2022-11-09T21:45:43.255Z,87.71
2022-11-09T21:48:09.788Z,88.35
2022-11-09T21:50:36.257Z,88.27
2022-11-09T21:53:02.910Z,88.08
2022-11-09T21:55:30.321Z,88.39
2022-11-09T21:57:56.784Z,88.13
2022-11-09T22:00:23.317Z,88.51
2022-11-09T22:02:50.692Z,89.09
2022-11-09T22:05:22.659Z,88.20
2022-11-09T22:07:49.527Z,88.95
2022-11-09T22:10:16.214Z,90.51
2022-11-09T22:12:42.713Z,91.54
2022-11-09T22:15:10.322Z,90.12
2022-11-09T22:17:36.900Z,89.49
2022-11-09T22:20:03.626Z,87.72
2022-11-09T22:22:32.795Z,88.27
2022-11-09T22:24:59.472Z,88.51
2022-11-09T22:27:26.119Z,88.25
2022-11-09T22:29:52.636Z,87.74
2022-11-09T22:32:19.133Z,88.42
2022-11-09T22:34:45.698Z,88.32
2022-11-09T22:37:12.359Z,88.62
2022-11-09T22:39:41.795Z,88.35
2022-11-09T22:42:12.520Z,87.96
2022-11-09T22:44:39.005Z,88.07
2022-11-09T22:47:05.615Z,87.79
2022-11-09T22:49:34.762Z,87.85
2022-11-09T22:52:01.244Z,88.08
2022-11-09T22:54:27.894Z,88.04
2022-11-09T22:56:54.424Z,88.40
2022-11-09T22:59:20.921Z,88.28
2022-11-09T23:01:47.391Z,88.03
2022-11-09T23:04:13.919Z,87.97
2022-11-09T23:06:40.471Z,88.61
2022-11-09T23:09:07.055Z,88.03
2022-11-09T23:11:33.696Z,88.22
2022-11-09T23:14:00.223Z,88.96
2022-11-09T23:16:26.742Z,89.70
2022-11-09T23:18:53.281Z,89.24
2022-11-09T23:21:40.065Z,88.93
2022-11-09T23:24:07.936Z,88.11
2022-11-09T23:26:34.630Z,87.42
2022-11-09T23:29:01.252Z,87.69
2022-11-09T23:31:28.030Z,88.21
2022-11-09T23:33:57.619Z,88.17
2022-11-09T23:36:26.352Z,88.58
2022-11-09T23:38:53.235Z,88.53
2022-11-09T23:41:19.910Z,88.73
2022-11-09T23:43:49.514Z,88.48
2022-11-09T23:46:16.826Z,89.05
2022-11-09T23:48:43.361Z,88.60
2022-11-09T23:51:10.208Z,89.43
2022-11-09T23:53:36.687Z,88.59
2022-11-09T23:56:06.396Z,88.82
2022-11-09T23:58:33.513Z,88.30
